LiveATC.Net - Listen to live air traffic control over the Internet!


ICAO: WMSA  IATA: SZB   Airport: Sultan Abdul Aziz Shah Airport
City: Subang
Country: Malaysia   Continent: Asia
WMSA METAR Weather: WMSA 280900Z 21007KT 120V260 9999 FEW017CB BKN280 30/23 Q1007
WMSA Flight Activity (FlightAware)
WMSA/WMKK Twr/App/Radar
Feed Status: DOWN
Last heard on: 2016-06-22 19:22:04 (35 days 15 hours 5 minutes ago)
WMSA/WMKK Twr/App/Radar Audio Archives
FacilityFrequency
Air Force Ground120.300
Air Force Ground125.200
Lumpur Approach119.450
Lumpur Approach123.750
Lumpur Approach132.600
Lumpur Approach132.800
Lumpur Approach133.400
Lumpur Director124.200
Lumpur Director125.100
Lumpur Tower118.500
Lumpur Tower118.800
Misc-TBD
Subang Tower118.200


NOTICE

Unauthorized use prohibited. See LiveATC.net Terms of Service


Find LiveATC Audio Streams


Airport/ARTCC Code

Frequency
(e.g., 124.400, 128.75)
Site-wide search

Browse LiveATC Feeds
LiveATC Coverage Map
Top 50 LiveATC Feeds
Bad Weather Areas

LiveATC FAQ
Offer a LiveATC Feed
Contact LiveATC.net
Press Inquiries

LiveATC on iPhone
LiveATC on Android

Windows Phone
Windows 8/10

LiveATC Mobile
(Mobile browser)

ATC Audio Archives
Interesting Recordings

LiveATC Forums


Home Page
About LiveATC.net
Make a Donation
LiveATC Store

Terms of Use
Privacy Policy

Canadian Air Freqs

AIRMETs/SIGMETs

FAA Airport Status
Nat'l Airspace Status
Arrival Demand Charts


Server Software By:
Icecast.org
Liquidsoap